This demonstration page uses our WeatherBlox Daily Observations layout. Learn more.

Hourly Observations for August 30, 2017

Temp ( °F °C ) Dew Point ( °F °C ) Humidity (%) Winds ( mph kmh ) Pressure ( in mb ) Visibility ( mi km ) Precip ( " mm )
12:54 am 00:54 Clear 58 14.4 56 13.3 93 93 N 5 7 30.08 1019 8 12.87472 0 0
1:54 am 01:54 Clear 60 15.6 57 13.9 90 90 Calm 30.07 1018 10 16.0934 0 0
3:54 am 03:54 Clear 55 12.8 53 11.7 93 93 N 5 7 30.08 1019 9 14.48406 0 0
4:54 am 04:54 Clear 56 13.3 54 12.2 93 93 N 3 6 30.09 1019 8 12.87472 0 0
5:54 am 05:54 Clear 55 12.8 53 11.7 93 93 Calm 30.1 1019 10 16.0934 0 0
6:54 am 06:54 Sunny 53 11.7 51 10.6 93 93 N 3 6 30.11 1020 10 16.0934 0 0
7:54 am 07:54 Sunny with Mist and Fog 57 13.9 55 12.8 93 93 Calm 30.13 1020 4 6.43736 0 0
8:54 am 08:54 Sunny 64 17.8 58 14.4 81 81 Calm 30.14 1021 10 16.0934 0 0
9:54 am 09:54 Sunny 69 20.6 60 15.6 73 73 Calm 30.13 1020 10 16.0934 0 0
10:54 am 10:54 Sunny 73 22.8 60 15.6 64 64 S 5 7 30.13 1020 10 16.0934 0 0
11:54 am 11:54 Mostly Sunny 76 24.4 60 15.6 58 58 S 5 7 30.12 1020 10 16.0934 0 0
12:54 pm 12:54 Mostly Sunny 78 25.6 61 16.1 56 56 SSE 8 13 30.11 1020 10 16.0934 0 0
1:54 pm 13:54 Sunny 79 26.1 60 15.6 52 52 VRB 3 6 30.1 1019 10 16.0934 0 0
2:54 pm 14:54 Partly Cloudy 79 26.1 60 15.6 52 52 Calm 30.09 1019 10 16.0934 0 0
3:54 pm 15:54 Sunny 81 27.2 60 15.6 49 49 SSW 7 11 30.07 1018 10 16.0934 0 0
4:54 pm 16:54 Sunny 81 27.2 60 15.6 49 49 VRB 3 6 30.06 1018 10 16.0934 0 0
5:54 pm 17:54 Sunny 81 27.2 60 15.6 49 49 Calm 30.06 1018 10 16.0934 0 0
6:54 pm 18:54 Sunny 79 26.1 61 16.1 54 54 NE 9 15 30.06 1018 10 16.0934 0 0
7:54 pm 19:54 Sunny 73 22.8 62 16.7 69 69 ENE 7 11 30.07 1018 10 16.0934 0 0
8:54 pm 20:54 Clear 70 21.1 62 16.7 76 76 NE 6 9 30.09 1019 10 16.0934 0 0
9:54 pm 21:54 Clear 68 20 62 16.7 81 81 NE 5 7 30.09 1019 10 16.0934 0 0
10:54 pm 22:54 Clear 71 21.7 62 16.7 73 73 Calm 30.1 1019 10 16.0934 0 0
11:54 pm 23:54 Clear 68 20 61 16.1 78 78 Calm 30.1 1019 10 16.0934 0 0

Powered by AerisWeather